Myra Eckstein — WDF9473 — position and weather

sailwx.info

Track history (hours):
 
Tides and Currents Weather Stations Pressure Air Temp Water Temp Dewpoint Dewpoint Depression Visibility Wind Speed Wind Dir Waves Ship Positions

Myra Eckstein

Owner: Marquette Transportation Co. LLC, Paducah, KY. More information available from US FCC via Universal Licensing System and Coast Guard Vessel Documentation Center.

Last reported at 2018-Feb-10 22:31 UTC. Time now 2018-Feb-20 15:37 UTC.
Position N 32°40' W 091°08'.
Warning: this ship's position is 9 days out of date.

Length 47 m; draft 3 m.

Type: Towing. MMSI: 367505510.

Date/timePositionNaut miles runAvg speedWind from/ knotsBaromVisibWave heightAir tempDewpointWater temp
2018-Feb-10 22:31N 32°40' W 091°08'0 4.1
2018-Feb-10 22:30N 32°40' W 091°08'2 3.4
2018-Feb-10 22:00N 32°39' W 091°09'2 3.3
2018-Feb-10 21:31N 32°37' W 091°09'2 4.0
2018-Feb-10 21:00N 32°35' W 091°08'2 4.1
2018-Feb-10 20:30N 32°34' W 091°06'2 3.7
2018-Feb-10 20:01N 32°32' W 091°06'2 3.8
2018-Feb-10 19:30N 32°30' W 091°07'0 0.1
2018-Feb-10 19:00N 32°30' W 091°07'0 0.0
2018-Feb-10 18:30N 32°30' W 091°07'0 0.2
2018-Feb-10 18:00N 32°30' W 091°07'1 1.7
2018-Feb-10 17:30N 32°29' W 091°07'2 3.8
2018-Feb-10 17:00N 32°28' W 091°06'2 4.2
2018-Feb-10 16:30N 32°26' W 091°04'2 4.1
2018-Feb-10 16:00N 32°26' W 091°01'2 4.0
2018-Feb-10 15:30N 32°25' W 090°60'2 3.6
2018-Feb-10 15:00N 32°23' W 090°60'2 3.4
2018-Feb-10 14:30N 32°21' W 090°60'2 4.3
2018-Feb-10 14:00N 32°21' W 090°57'2 4.3
2018-Feb-10 13:30N 32°20' W 090°55'2 3.4
2018-Feb-10 13:00N 32°19' W 090°54'2 3.9
2018-Feb-10 12:30N 32°17' W 090°56'2 4.2
2018-Feb-10 12:00N 32°16' W 090°58'2 3.7
2018-Feb-10 11:30N 32°14' W 090°59'2 3.8
2018-Feb-10 11:00N 32°13' W 090°59'2 3.7
2018-Feb-10 10:30N 32°11' W 090°60'2 3.9
2018-Feb-10 10:00N 32°09' W 091°00'2 3.4
2018-Feb-10 09:30N 32°07' W 091°01'2 3.5
2018-Feb-10 09:00N 32°07' W 091°03'2 3.4
2018-Feb-10 08:30N 32°08' W 091°05'2 3.2
2018-Feb-10 08:00N 32°07' W 091°06'  
Track history (hours):
 
Tides and Currents Weather Stations Pressure Air Temp Water Temp Dewpoint Dewpoint Depression Visibility Wind Speed Wind Dir Waves Ship Positions

Myra Eckstein

Owner: Marquette Transportation Co. LLC, Paducah, KY. More information available from US FCC via Universal Licensing System and Coast Guard Vessel Documentation Center.

Last reported at 2018-Feb-10 22:31 UTC. Time now 2018-Feb-20 15:37 UTC.
Position N 32°40' W 091°08'.
Warning: this ship's position is 9 days out of date.

Length 47 m; draft 3 m.

Type: Towing. MMSI: 367505510.

Date/timePositionNaut miles runAvg speedWind from/ knotsBaromVisibWave heightAir tempDewpointWater temp
2018-Feb-10 22:31N 32°40' W 091°08'0 4.1
2018-Feb-10 22:30N 32°40' W 091°08'2 3.4
2018-Feb-10 22:00N 32°39' W 091°09'2 3.3
2018-Feb-10 21:31N 32°37' W 091°09'2 4.0
2018-Feb-10 21:00N 32°35' W 091°08'2 4.1
2018-Feb-10 20:30N 32°34' W 091°06'2 3.7
2018-Feb-10 20:01N 32°32' W 091°06'2 3.8
2018-Feb-10 19:30N 32°30' W 091°07'0 0.1
2018-Feb-10 19:00N 32°30' W 091°07'0 0.0
2018-Feb-10 18:30N 32°30' W 091°07'0 0.2
2018-Feb-10 18:00N 32°30' W 091°07'1 1.7
2018-Feb-10 17:30N 32°29' W 091°07'2 3.8
2018-Feb-10 17:00N 32°28' W 091°06'2 4.2
2018-Feb-10 16:30N 32°26' W 091°04'2 4.1
2018-Feb-10 16:00N 32°26' W 091°01'2 4.0
2018-Feb-10 15:30N 32°25' W 090°60'2 3.6
2018-Feb-10 15:00N 32°23' W 090°60'2 3.4
2018-Feb-10 14:30N 32°21' W 090°60'2 4.3
2018-Feb-10 14:00N 32°21' W 090°57'2 4.3
2018-Feb-10 13:30N 32°20' W 090°55'2 3.4
2018-Feb-10 13:00N 32°19' W 090°54'2 3.9
2018-Feb-10 12:30N 32°17' W 090°56'2 4.2
2018-Feb-10 12:00N 32°16' W 090°58'2 3.7
2018-Feb-10 11:30N 32°14' W 090°59'2 3.8
2018-Feb-10 11:00N 32°13' W 090°59'2 3.7
2018-Feb-10 10:30N 32°11' W 090°60'2 3.9
2018-Feb-10 10:00N 32°09' W 091°00'2 3.4
2018-Feb-10 09:30N 32°07' W 091°01'2 3.5
2018-Feb-10 09:00N 32°07' W 091°03'2 3.4
2018-Feb-10 08:30N 32°08' W 091°05'2 3.2
2018-Feb-10 08:00N 32°07' W 091°06'  

Dump ship's entire track history